Time;durP1;ratioP1;P1;durP2;ratioP2;P2;SDS_P1;SDS_P2;PMS_P1;PMS_P2;Temp;Humidity;BMP_temperature;BMP_pressure;BME280_temperature;BME280_humidity;BME280_pressure;Samples;Min_cycle;Max_cycle;Signal;HPM_P1;HPM_P2
2023/02/10 00:01:28;;;;;;;28.00;12.57;;;3.60;99.90;;;;;;5073660;28;25054;-73
2023/02/10 00:03:54;;;;;;;32.63;13.80;;;3.60;99.90;;;;;;5066147;28;25084;-71
2023/02/10 00:06:24;;;;;;;28.95;12.75;;;3.60;99.90;;;;;;5061703;28;25113;-74
2023/02/10 00:08:52;;;;;;;28.15;11.88;;;3.70;99.90;;;;;;5065099;28;25046;-73
2023/02/10 00:11:18;;;;;;;41.47;13.80;;;3.70;99.90;;;;;;5059395;28;25144;-74
2023/02/10 00:13:45;;;;;;;36.22;13.85;;;3.70;99.90;;;;;;5042571;28;25134;-74
2023/02/10 00:16:15;;;;;;;28.05;12.88;;;3.70;99.90;;;;;;5057968;28;25105;-78
2023/02/10 00:18:41;;;;;;;28.88;12.82;;;3.70;99.90;;;;;;5065728;28;25072;-75
2023/02/10 00:21:13;;;;;;;35.05;14.32;;;3.60;99.90;;;;;;5044638;28;25075;-75
2023/02/10 00:23:39;;;;;;;;;;;3.60;99.90;;;;;;5059946;28;25103;-72
2023/02/10 00:26:06;;;;;;;27.45;12.07;;;3.60;99.90;;;;;;5049755;28;25149;-73
2023/02/10 00:28:33;;;;;;;31.00;12.85;;;3.60;99.90;;;;;;5064032;28;25090;-72
2023/02/10 00:30:59;;;;;;;28.80;13.90;;;3.50;99.90;;;;;;5057337;28;25058;-74
2023/02/10 00:33:24;;;;;;;24.98;12.88;;;3.60;99.90;;;;;;5066540;28;25066;-73
2023/02/10 00:35:50;;;;;;;28.38;12.90;;;3.60;99.90;;;;;;5057963;28;25064;-73
2023/02/10 00:38:16;;;;;;;31.73;13.00;;;3.50;99.90;;;;;;5051553;28;25051;-73
2023/02/10 00:40:41;;;;;;;36.75;13.38;;;3.60;99.90;;;;;;5066197;28;25152;-73
2023/02/10 00:43:07;;;;;;;27.60;12.20;;;3.70;99.90;;;;;;5067436;28;25066;-73
2023/02/10 00:45:33;;;;;;;33.20;11.80;;;3.70;99.90;;;;;;5069399;28;25148;-73
2023/02/10 00:47:58;;;;;;;25.85;11.80;;;3.70;99.90;;;;;;5063100;28;25089;-72
2023/02/10 00:50:24;;;;;;;35.85;12.88;;;3.80;99.90;;;;;;5056827;28;25065;-72
2023/02/10 00:52:50;;;;;;;32.17;13.55;;;3.70;99.90;;;;;;5054669;28;25056;-73
2023/02/10 00:55:15;;;;;;;32.65;13.18;;;3.60;99.90;;;;;;5060348;28;25116;-73
2023/02/10 00:57:41;;;;;;;26.95;12.27;;;3.60;99.90;;;;;;5060389;28;25069;-73
2023/02/10 01:00:07;;;;;;;29.15;13.13;;;3.50;99.90;;;;;;5057170;28;25061;-73
2023/02/10 01:02:33;;;;;;;33.58;12.60;;;3.50;99.90;;;;;;5053060;28;25071;-72
2023/02/10 01:04:59;;;;;;;31.92;13.10;;;3.50;99.90;;;;;;5058109;28;25055;-72
2023/02/10 01:07:24;;;;;;;33.20;13.88;;;3.60;99.90;;;;;;5064733;28;25130;-73
2023/02/10 01:09:50;;;;;;;34.05;13.63;;;3.50;99.90;;;;;;5053840;28;25106;-73
2023/02/10 01:12:16;;;;;;;35.42;13.15;;;3.60;99.90;;;;;;5057159;28;25080;-74
2023/02/10 01:14:41;;;;;;;31.35;12.57;;;3.60;99.90;;;;;;5051678;28;25174;-73
2023/02/10 01:17:07;;;;;;;31.85;13.65;;;3.60;99.90;;;;;;5048587;28;25139;-73
2023/02/10 01:19:33;;;;;;;31.38;13.10;;;3.40;99.90;;;;;;5058233;28;25086;-74
2023/02/10 01:21:58;;;;;;;31.30;13.85;;;3.40;99.90;;;;;;5055058;28;25071;-75
2023/02/10 01:24:24;;;;;;;34.05;14.27;;;3.30;99.90;;;;;;5061283;28;25134;-74
2023/02/10 01:26:50;;;;;;;30.02;13.00;;;3.30;99.90;;;;;;5060189;28;25067;-73
2023/02/10 01:29:15;;;;;;;31.80;13.48;;;3.20;99.90;;;;;;5055201;28;25144;-73
2023/02/10 01:31:41;;;;;;;30.90;12.85;;;3.10;99.90;;;;;;5058333;28;25100;-73
2023/02/10 01:34:07;;;;;;;40.97;14.82;;;3.00;99.90;;;;;;5072745;28;25078;-74
2023/02/10 01:36:32;;;;;;;28.55;13.32;;;3.00;99.90;;;;;;5064580;28;25074;-71
2023/02/10 01:38:58;;;;;;;37.45;13.73;;;2.90;99.90;;;;;;5044158;28;25102;-72
2023/02/10 01:41:24;;;;;;;38.00;14.63;;;2.80;99.90;;;;;;5064784;28;25132;-74
2023/02/10 01:43:54;;;;;;;38.15;14.68;;;2.90;99.90;;;;;;5057038;28;25102;-74
2023/02/10 01:46:20;;;;;;;31.23;13.50;;;2.90;99.90;;;;;;5060743;28;25070;-73
2023/02/10 01:48:46;;;;;;;30.27;13.48;;;2.70;99.90;;;;;;5062221;28;25052;-75
2023/02/10 01:51:12;;;;;;;31.25;13.52;;;2.70;99.90;;;;;;5057978;28;25062;-74
2023/02/10 01:53:39;;;;;;;32.88;13.13;;;2.60;99.90;;;;;;5034007;28;25067;-76
2023/02/10 01:56:05;;;;;;;30.83;15.07;;;2.50;99.90;;;;;;5056591;28;25076;-74
2023/02/10 01:58:32;;;;;;;26.88;13.98;;;2.40;99.90;;;;;;5061328;28;25065;-72
2023/02/10 02:00:59;;;;;;;31.95;15.25;;;2.40;99.90;;;;;;5055317;28;25114;-75
2023/02/10 02:03:25;;;;;;;30.80;14.40;;;2.50;99.90;;;;;;5058490;28;25100;-73
2023/02/10 02:05:51;;;;;;;34.15;15.13;;;2.50;99.90;;;;;;5056522;28;25113;-73
2023/02/10 02:08:21;;;;;;;29.63;14.77;;;2.40;99.90;;;;;;5053399;28;25085;-73
2023/02/10 02:11:15;;;;;;;34.20;14.70;;;2.40;99.90;;;;;;5050133;28;25121;-73
2023/02/10 02:13:53;;;;;;;37.63;14.48;;;2.30;99.90;;;;;;5016177;28;25073;-74
2023/02/10 02:17:08;;;;;;;35.58;15.88;;;2.20;99.90;;;;;;5055041;28;25067;-73
2023/02/10 02:19:50;;;;;;;37.53;15.55;;;2.20;99.90;;;;;;5018248;28;25082;-73
2023/02/10 02:22:53;;;;;;;36.63;16.45;;;2.20;99.90;;;;;;5061134;28;25086;-74
2023/02/10 02:25:37;;;;;;;35.33;14.95;;;2.20;99.90;;;;;;5050284;28;25158;-73
2023/02/10 02:28:37;;;;;;;32.47;14.93;;;2.20;99.90;;;;;;5054007;28;25101;-73
2023/02/10 02:31:27;;;;;;;44.08;16.73;;;2.10;99.90;;;;;;5046001;28;25059;-73
2023/02/10 02:34:20;;;;;;;34.28;15.52;;;1.90;99.90;;;;;;5051561;28;25151;-74
2023/02/10 02:37:24;;;;;;;34.42;15.57;;;1.90;99.90;;;;;;5055041;28;25071;-74
2023/02/10 02:39:52;;;;;;;40.22;16.88;;;1.90;99.90;;;;;;5048030;28;25082;-73
2023/02/10 02:42:19;;;;;;;42.25;16.88;;;1.90;99.90;;;;;;5060814;28;25076;-73
2023/02/10 02:48:08;;;;;;;33.25;14.88;;;1.90;99.90;;;;;;3367127;26;25062;-71
2023/02/10 02:50:52;;;;;;;38.03;16.02;;;1.90;99.90;;;;;;5007018;28;25056;-70
2023/02/10 02:53:27;;;;;;;34.20;15.98;;;1.90;99.90;;;;;;4993057;28;25048;-72
2023/02/10 02:56:27;;;;;;;43.22;16.30;;;2.00;99.90;;;;;;5001250;28;25063;-71
2023/02/10 02:59:00;;;;;;;38.17;17.58;;;2.00;99.90;;;;;;4998956;28;25051;-72
2023/02/10 03:01:31;;;;;;;33.65;17.48;;;2.00;99.90;;;;;;5005051;28;25090;-71
2023/02/10 03:03:58;;;;;;;39.13;14.85;;;2.00;99.90;;;;;;4997856;28;25071;-72
2023/02/10 03:06:23;;;;;;;32.30;14.10;;;2.00;99.90;;;;;;4991357;28;25145;-71
2023/02/10 03:08:49;;;;;;;39.55;16.83;;;1.80;99.90;;;;;;4997502;28;25083;-72
2023/02/10 03:11:15;;;;;;;33.70;15.75;;;1.80;99.90;;;;;;5003150;28;25091;-71
2023/02/10 03:13:40;;;;;;;32.10;15.02;;;1.90;99.90;;;;;;4990653;28;25080;-71
2023/02/10 03:16:06;;;;;;;34.30;16.95;;;1.70;99.90;;;;;;5005557;28;25070;-71
2023/02/10 03:18:32;;;;;;;36.83;16.38;;;1.80;99.90;;;;;;5006483;28;25162;-71
2023/02/10 03:20:57;;;;;;;43.65;17.35;;;1.70;99.90;;;;;;4978622;28;25109;-71
2023/02/10 03:23:23;;;;;;;35.72;16.55;;;1.60;99.90;;;;;;5000766;28;25101;-71
2023/02/10 03:25:48;;;;;;;38.78;17.33;;;1.50;99.90;;;;;;5000804;28;25067;-70
2023/02/10 03:28:14;;;;;;;43.95;16.88;;;1.40;99.90;;;;;;5006299;28;25103;-70
2023/02/10 03:30:46;;;;;;;42.97;17.63;;;1.50;99.90;;;;;;4999085;28;25069;-70
2023/02/10 03:33:12;;;;;;;33.35;16.35;;;1.50;99.90;;;;;;5008513;28;25078;-72
2023/02/10 03:35:39;;;;;;;44.92;16.90;;;1.50;99.90;;;;;;5013443;28;25067;-71
2023/02/10 03:38:05;;;;;;;38.85;16.70;;;1.60;99.90;;;;;;4999773;28;25072;-71
2023/02/10 03:40:31;;;;;;;34.38;16.50;;;1.60;99.90;;;;;;4999127;28;25072;-71
2023/02/10 03:42:56;;;;;;;39.78;17.27;;;1.60;99.90;;;;;;4997470;28;25059;-73
2023/02/10 03:45:22;;;;;;;46.72;18.13;;;1.50;99.90;;;;;;4995194;28;25073;-71
2023/02/10 03:47:48;;;;;;;44.25;17.95;;;1.50;99.90;;;;;;5000801;28;25082;-71
2023/02/10 03:50:13;;;;;;;40.10;17.60;;;1.60;99.90;;;;;;5001606;28;25157;-71
2023/02/10 03:52:39;;;;;;;41.25;17.77;;;1.60;99.90;;;;;;4996767;28;25114;-72
2023/02/10 03:55:06;;;;;;;50.60;19.42;;;1.70;99.90;;;;;;4990615;28;25050;-71
2023/02/10 03:57:32;;;;;;;39.88;16.63;;;1.70;99.90;;;;;;4989286;28;25051;-73
2023/02/10 03:59:57;;;;;;;39.70;17.77;;;1.70;99.90;;;;;;5004707;28;25059;-71
2023/02/10 04:02:23;;;;;;;40.65;17.48;;;1.70;99.90;;;;;;4995702;28;25061;-71
2023/02/10 04:04:48;;;;;;;44.30;18.27;;;1.60;99.90;;;;;;5002052;28;25086;-72
2023/02/10 04:07:14;;;;;;;44.20;18.75;;;1.50;99.90;;;;;;5002393;28;25078;-70
2023/02/10 04:09:40;;;;;;;44.75;17.55;;;1.50;99.90;;;;;;5008100;28;25059;-71
2023/02/10 04:12:05;;;;;;;42.05;17.25;;;1.50;99.90;;;;;;4998830;28;25072;-71
2023/02/10 04:14:31;;;;;;;42.45;18.73;;;1.50;99.90;;;;;;4995198;28;25166;-71
2023/02/10 04:16:56;;;;;;;44.33;19.02;;;1.40;99.90;;;;;;4998713;28;25060;-72
2023/02/10 04:19:22;;;;;;;49.22;19.13;;;1.40;99.90;;;;;;4997737;28;25074;-71
2023/02/10 04:21:48;;;;;;;47.58;20.25;;;1.60;99.90;;;;;;4996543;28;25144;-71
2023/02/10 04:24:14;;;;;;;42.72;19.70;;;1.50;99.90;;;;;;4997894;28;25069;-71
2023/02/10 04:26:39;;;;;;;39.28;18.02;;;1.70;99.90;;;;;;4999932;28;25069;-71
2023/02/10 04:29:05;;;;;;;51.40;18.08;;;1.70;99.90;;;;;;4994687;28;25057;-72
2023/02/10 04:31:31;;;;;;;42.05;17.65;;;1.60;99.90;;;;;;5001237;28;25063;-71
2023/02/10 04:33:56;;;;;;;42.65;17.17;;;1.60;99.90;;;;;;5000957;28;25149;-70
2023/02/10 04:36:22;;;;;;;39.85;17.75;;;1.80;99.90;;;;;;4998264;28;25076;-71
2023/02/10 04:38:47;;;;;;;48.65;17.88;;;1.60;99.90;;;;;;4998339;28;25083;-71
2023/02/10 04:41:13;;;;;;;42.25;17.77;;;1.60;99.90;;;;;;5001888;28;25142;-71
2023/02/10 04:43:38;;;;;;;43.67;18.73;;;1.70;99.90;;;;;;4982480;28;25165;-71
2023/02/10 04:46:04;;;;;;;42.22;17.77;;;1.60;99.90;;;;;;4979812;28;25101;-72
2023/02/10 04:48:30;;;;;;;44.28;18.33;;;1.60;99.90;;;;;;4993701;28;25081;-71
2023/02/10 04:50:55;;;;;;;49.00;18.52;;;1.70;99.90;;;;;;4994171;28;25047;-71
2023/02/10 04:53:21;;;;;;;46.92;18.88;;;1.70;99.90;;;;;;4997353;28;25103;-70
2023/02/10 04:55:46;;;;;;;52.42;20.00;;;1.80;99.90;;;;;;4984031;28;25085;-71
2023/02/10 04:58:12;;;;;;;59.33;20.08;;;1.70;99.90;;;;;;4999343;28;25074;-70
2023/02/10 05:00:38;;;;;;;47.22;19.45;;;1.70;99.90;;;;;;4994433;28;25060;-70
2023/02/10 05:03:03;;;;;;;47.90;19.45;;;1.70;99.90;;;;;;4994097;28;25052;-71
2023/02/10 05:05:29;;;;;;;46.85;18.20;;;1.60;99.90;;;;;;4985735;28;25060;-70
2023/02/10 05:07:55;;;;;;;48.95;19.27;;;1.60;99.90;;;;;;5001605;28;25073;-71
2023/02/10 05:10:21;;;;;;;43.92;18.75;;;1.50;99.90;;;;;;4997855;28;25148;-72
2023/02/10 05:12:46;;;;;;;42.17;18.33;;;1.50;99.90;;;;;;4998071;28;25063;-71
2023/02/10 05:15:13;;;;;;;49.65;18.27;;;1.40;99.90;;;;;;5004459;28;25062;-71
2023/02/10 05:17:39;;;;;;;42.38;18.08;;;1.50;99.90;;;;;;4997076;28;25180;-71
2023/02/10 05:20:06;;;;;;;38.00;18.10;;;1.60;99.90;;;;;;4999262;28;25111;-71
2023/02/10 05:22:34;;;;;;;38.88;17.98;;;1.40;99.90;;;;;;4997601;28;25145;-71
2023/02/10 05:24:59;;;;;;;42.72;17.95;;;1.50;99.90;;;;;;4986099;28;25046;-70
2023/02/10 05:27:25;;;;;;;45.70;18.85;;;1.30;99.90;;;;;;4993733;28;25058;-72
2023/02/10 05:29:51;;;;;;;57.63;20.08;;;1.10;99.90;;;;;;4992092;28;25089;-70
2023/02/10 05:32:16;;;;;;;60.35;20.23;;;1.10;99.90;;;;;;4998561;28;25053;-70
2023/02/10 05:34:42;;;;;;;69.55;22.98;;;1.10;99.90;;;;;;5004640;28;25162;-71
2023/02/10 05:37:08;;;;;;;61.95;22.80;;;1.20;99.90;;;;;;4999684;28;25211;-70
2023/02/10 05:39:33;;;;;;;49.95;19.20;;;1.20;99.90;;;;;;4995224;28;25050;-70
2023/02/10 05:41:59;;;;;;;61.25;19.67;;;1.10;99.90;;;;;;4999298;28;25088;-70
2023/02/10 05:44:27;;;;;;;47.42;18.73;;;1.00;99.90;;;;;;5001669;28;25084;-71
2023/02/10 05:46:53;;;;;;;34.47;17.25;;;0.90;99.90;;;;;;5001633;28;25110;-72
2023/02/10 05:49:20;;;;;;;43.65;18.75;;;0.90;99.90;;;;;;5007699;28;25092;-70
2023/02/10 05:51:46;;;;;;;46.85;18.80;;;1.10;99.90;;;;;;5002083;28;25070;-71
2023/02/10 05:54:12;;;;;;;39.67;19.15;;;1.10;99.90;;;;;;5007683;28;25063;-72
2023/02/10 05:56:38;;;;;;;41.88;19.00;;;0.90;99.90;;;;;;5006356;28;25049;-72
2023/02/10 05:59:04;;;;;;;40.28;18.73;;;0.80;99.90;;;;;;5005447;28;25074;-71
2023/02/10 06:01:30;;;;;;;52.00;19.48;;;0.80;99.90;;;;;;5000027;28;25073;-70
2023/02/10 06:03:55;;;;;;;36.13;17.88;;;0.70;99.90;;;;;;4999684;28;25097;-70
2023/02/10 06:06:21;;;;;;;61.25;18.05;;;0.80;99.90;;;;;;4995085;28;25064;-71
2023/02/10 06:08:47;;;;;;;47.33;16.70;;;0.80;99.90;;;;;;4994590;28;25082;-71
2023/02/10 06:11:12;;;;;;;45.80;17.80;;;1.00;99.90;;;;;;4997698;28;25073;-71
2023/02/10 06:13:38;;;;;;;61.60;19.17;;;1.00;99.90;;;;;;4995018;28;25075;-71
2023/02/10 06:16:04;;;;;;;77.90;20.88;;;1.20;99.90;;;;;;5013793;28;25074;-70
2023/02/10 06:18:30;;;;;;;110.25;23.55;;;1.00;99.90;;;;;;5013272;28;25079;-70
2023/02/10 06:20:56;;;;;;;96.47;22.08;;;1.10;99.90;;;;;;5008153;28;25082;-71
2023/02/10 06:23:23;;;;;;;48.55;19.08;;;1.10;99.90;;;;;;4992198;28;25064;-71
2023/02/10 06:25:50;;;;;;;81.70;24.77;;;1.10;99.90;;;;;;4992522;28;25044;-70
2023/02/10 06:28:16;;;;;;;64.82;21.83;;;1.10;99.90;;;;;;4981552;28;25064;-70
2023/02/10 06:30:42;;;;;;;56.10;22.55;;;1.00;99.90;;;;;;4999686;28;25064;-70
2023/02/10 06:33:07;;;;;;;75.50;24.55;;;1.20;99.90;;;;;;5002072;28;25066;-69
2023/02/10 06:35:33;;;;;;;61.75;21.83;;;1.40;99.90;;;;;;4998638;28;25083;-70
2023/02/10 06:37:58;;;;;;;44.53;18.95;;;1.30;99.90;;;;;;5002267;28;25124;-71
2023/02/10 06:40:24;;;;;;;47.28;20.35;;;1.40;99.90;;;;;;4998217;28;25062;-70
2023/02/10 06:42:49;;;;;;;52.22;19.55;;;1.50;99.90;;;;;;5000152;28;25061;-71
2023/02/10 06:45:15;;;;;;;47.38;20.48;;;1.60;99.90;;;;;;5001659;28;25088;-72
2023/02/10 06:47:40;;;;;;;43.53;18.75;;;1.60;99.90;;;;;;4995663;28;25051;-71
2023/02/10 06:50:06;;;;;;;50.80;19.85;;;1.50;99.90;;;;;;5007788;28;25102;-69
2023/02/10 06:52:34;;;;;;;48.45;17.92;;;1.40;99.90;;;;;;4997926;28;25049;-71
2023/02/10 06:55:00;;;;;;;45.15;17.92;;;1.30;99.90;;;;;;4999546;28;25076;-70
2023/02/10 06:57:26;;;;;;;52.83;18.80;;;1.30;99.90;;;;;;5005240;28;25134;-70
2023/02/10 06:59:52;;;;;;;44.17;19.77;;;1.40;99.90;;;;;;5006814;28;25104;-70
2023/02/10 07:02:18;;;;;;;47.15;19.42;;;1.50;99.90;;;;;;5004625;28;25049;-70
2023/02/10 07:04:44;;;;;;;50.42;19.38;;;1.50;99.90;;;;;;4994126;28;25058;-69
2023/02/10 07:07:09;;;;;;;51.50;21.45;;;1.60;99.90;;;;;;4991310;28;25060;-70
2023/02/10 07:09:35;;;;;;;65.35;23.80;;;1.60;99.90;;;;;;4999017;28;25112;-68
2023/02/10 07:12:00;;;;;;;67.95;23.13;;;1.60;99.90;;;;;;5008052;28;25052;-70
2023/02/10 07:14:26;;;;;;;55.42;22.05;;;1.40;99.90;;;;;;5003947;28;25097;-68
2023/02/10 07:16:52;;;;;;;75.72;23.40;;;1.40;99.90;;;;;;4999939;28;25076;-70
2023/02/10 07:19:17;;;;;;;67.95;22.10;;;1.40;99.90;;;;;;5004020;28;25077;-69
2023/02/10 07:21:43;;;;;;;76.90;22.73;;;1.50;99.90;;;;;;4996881;28;25070;-70
2023/02/10 07:24:09;;;;;;;84.80;26.55;;;1.40;99.90;;;;;;4998826;28;25119;-69
2023/02/10 07:26:34;;;;;;;56.63;20.52;;;1.50;99.90;;;;;;4997241;28;25061;-68
2023/02/10 07:29:00;;;;;;;82.50;22.75;;;1.50;99.90;;;;;;5010131;28;25054;-69
2023/02/10 07:31:26;;;;;;;67.97;23.55;;;1.60;99.90;;;;;;5003696;28;25094;-69
2023/02/10 07:33:51;;;;;;;83.97;25.83;;;1.50;99.90;;;;;;4988709;28;25140;-69
2023/02/10 07:36:17;;;;;;;70.85;24.48;;;1.60;99.90;;;;;;5005213;28;25060;-70
2023/02/10 07:38:43;;;;;;;61.55;22.58;;;1.70;99.90;;;;;;5004158;28;25051;-71
2023/02/10 07:41:09;;;;;;;112.80;26.38;;;1.70;99.90;;;;;;4995133;28;25065;-69
2023/02/10 07:43:34;;;;;;;102.03;26.83;;;1.80;99.90;;;;;;4998791;28;25151;-69
2023/02/10 07:46:00;;;;;;;62.15;24.58;;;1.80;99.90;;;;;;5006707;28;25057;-70
2023/02/10 07:48:26;;;;;;;114.65;29.73;;;1.80;99.90;;;;;;5000388;28;25138;-70
2023/02/10 07:50:53;;;;;;;77.18;27.25;;;1.80;99.90;;;;;;5000275;28;25063;-70
2023/02/10 07:53:20;;;;;;;119.95;30.63;;;1.80;99.90;;;;;;5002009;28;25151;-70
2023/02/10 07:55:46;;;;;;;83.53;28.05;;;1.90;99.90;;;;;;5000492;28;25072;-70
2023/02/10 07:58:12;;;;;;;167.57;35.25;;;2.00;99.90;;;;;;4996305;28;25127;-70
2023/02/10 08:00:38;;;;;;;96.90;25.33;;;2.00;99.90;;;;;;5001016;28;25122;-69
2023/02/10 08:03:04;;;;;;;89.53;29.33;;;2.20;99.90;;;;;;4990691;28;25115;-70
2023/02/10 08:05:30;;;;;;;113.22;33.00;;;2.10;99.90;;;;;;4988917;28;25071;-68
2023/02/10 08:07:55;;;;;;;98.85;26.40;;;2.10;99.90;;;;;;5002350;28;25070;-69
2023/02/10 08:10:21;;;;;;;178.60;39.47;;;2.20;99.90;;;;;;5004523;28;25060;-68
2023/02/10 08:12:47;;;;;;;90.28;29.08;;;2.20;99.90;;;;;;4998179;28;25075;-67
2023/02/10 08:15:16;;;;;;;123.97;34.58;;;2.10;99.90;;;;;;4998997;28;25049;-69
2023/02/10 08:17:43;;;;;;;138.50;30.60;;;2.20;99.90;;;;;;4996400;28;25062;-69
2023/02/10 08:20:09;;;;;;;83.97;28.45;;;2.20;99.90;;;;;;4989356;28;25070;-70
2023/02/10 08:22:34;;;;;;;136.82;31.63;;;2.40;99.90;;;;;;4995128;28;25165;-69
2023/02/10 08:25:00;;;;;;;79.68;24.27;;;2.30;99.90;;;;;;5007036;28;25071;-69
2023/02/10 08:27:26;;;;;;;87.50;27.10;;;2.50;99.90;;;;;;5005333;28;25054;-69
2023/02/10 08:29:51;;;;;;;117.82;31.58;;;2.70;99.90;;;;;;5000447;28;25150;-70
2023/02/10 08:32:18;;;;;;;193.93;38.72;;;2.50;99.90;;;;;;4993651;28;25080;-69
2023/02/10 08:34:48;;;;;;;137.30;29.88;;;2.60;99.90;;;;;;5003384;28;25053;-69
2023/02/10 08:37:15;;;;;;;112.63;29.50;;;2.50;99.90;;;;;;5004031;28;25059;-69
2023/02/10 08:39:40;;;;;;;165.70;35.85;;;2.80;99.90;;;;;;5001478;28;25107;-69
2023/02/10 08:42:06;;;;;;;106.95;27.33;;;2.60;99.90;;;;;;4992269;28;25093;-71
2023/02/10 08:44:32;;;;;;;116.32;32.78;;;2.70;99.90;;;;;;5000049;28;25131;-68
2023/02/10 08:46:58;;;;;;;118.57;30.75;;;2.80;99.90;;;;;;5007165;28;25103;-70
2023/02/10 08:49:24;;;;;;;138.27;31.38;;;2.80;99.90;;;;;;4988167;28;25092;-69
2023/02/10 08:51:54;;;;;;;108.18;26.10;;;2.80;99.90;;;;;;4999789;28;25074;-68
2023/02/10 08:54:20;;;;;;;98.63;27.85;;;2.70;99.90;;;;;;4995986;28;25031;-67
2023/02/10 08:56:46;;;;;;;92.88;28.38;;;2.80;99.90;;;;;;5000041;28;25156;-70
2023/02/10 08:59:11;;;;;;;156.40;33.22;;;2.80;99.90;;;;;;4996668;28;25050;-68
2023/02/10 09:01:37;;;;;;;153.98;36.35;;;2.90;99.90;;;;;;5002365;28;25108;-68
2023/02/10 09:04:03;;;;;;;173.38;37.80;;;2.90;99.90;;;;;;4978906;28;25061;-68
2023/02/10 09:06:40;;;;;;;179.05;38.25;;;2.90;99.90;;;;;;4997798;28;25057;-68
2023/02/10 09:09:06;;;;;;;105.45;29.50;;;2.90;99.90;;;;;;5006450;28;25079;-69
2023/02/10 09:11:32;;;;;;;108.68;28.95;;;3.10;99.90;;;;;;5004418;28;25067;-68
2023/02/10 09:13:58;;;;;;;151.43;34.47;;;3.20;99.90;;;;;;4985882;28;25048;-68
2023/02/10 09:16:24;;;;;;;86.95;25.67;;;3.30;99.90;;;;;;4998017;28;25094;-69
2023/02/10 09:18:50;;;;;;;119.90;29.10;;;3.00;99.90;;;;;;4996334;28;25062;-68
2023/02/10 09:21:16;;;;;;;212.77;37.55;;;3.30;99.90;;;;;;4990854;28;25073;-68
2023/02/10 09:23:42;;;;;;;173.40;41.85;;;3.50;99.90;;;;;;5005945;28;25059;-68
2023/02/10 09:26:08;;;;;;;79.85;28.10;;;3.40;99.90;;;;;;4997960;28;25067;-69
2023/02/10 09:28:33;;;;;;;122.68;29.90;;;3.50;99.90;;;;;;5001993;28;25073;-70
2023/02/10 09:30:59;;;;;;;132.65;31.08;;;3.70;99.90;;;;;;4975039;28;25084;-70
2023/02/10 09:33:25;;;;;;;105.22;29.27;;;3.70;99.90;;;;;;4986561;28;25141;-69
2023/02/10 09:35:51;;;;;;;118.97;34.15;;;3.70;99.90;;;;;;5006002;28;25084;-69
2023/02/10 09:38:16;;;;;;;73.50;26.88;;;3.60;99.90;;;;;;4977899;28;25049;-69
2023/02/10 09:41:20;;;;;;;85.63;26.20;;;3.60;99.90;;;;;;4975446;28;25066;-69
2023/02/10 09:44:21;;;;;;;111.28;29.48;;;3.80;99.90;;;;;;4993739;28;25053;-68
2023/02/10 09:46:55;;;;;;;88.13;28.30;;;3.70;99.90;;;;;;4986277;28;25054;-69
2023/02/10 09:49:43;;;;;;;109.38;31.73;;;3.80;99.90;;;;;;4994002;28;25052;-68
2023/02/10 09:52:28;;;;;;;80.03;27.92;;;3.90;99.90;;;;;;5004961;28;25070;-69
2023/02/10 09:54:54;;;;;;;108.40;32.25;;;4.10;99.90;;;;;;5003450;28;25080;-69
2023/02/10 09:57:34;;;;;;;102.28;31.73;;;4.30;99.90;;;;;;4998639;28;25085;-69
2023/02/10 10:00:01;;;;;;;125.30;33.65;;;4.10;99.90;;;;;;4989347;28;25049;-70
2023/02/10 10:02:45;;;;;;;80.13;30.42;;;4.10;99.90;;;;;;5003965;28;25056;-69
2023/02/10 10:05:23;;;;;;;89.13;29.15;;;4.40;99.90;;;;;;5006327;28;25052;-71
2023/02/10 10:07:53;;;;;;;88.60;30.63;;;4.30;99.90;;;;;;4999697;28;25060;-68
2023/02/10 10:10:34;;;;;;;86.55;29.70;;;4.50;99.90;;;;;;4995152;28;25131;-69
2023/02/10 10:13:00;;;;;;;118.73;34.47;;;4.80;99.90;;;;;;4996860;28;25072;-69
2023/02/10 10:15:35;;;;;;;86.40;29.77;;;4.90;99.90;;;;;;5005265;28;25070;-70
2023/02/10 10:18:19;;;;;;;97.07;28.85;;;4.90;99.90;;;;;;4994289;28;25080;-69
2023/02/10 10:20:59;;;;;;;109.93;33.15;;;5.00;99.90;;;;;;4999104;28;25066;-70
2023/02/10 10:23:30;;;;;;;97.13;30.52;;;5.10;99.90;;;;;;4987925;28;25061;-70
2023/02/10 10:26:17;;;;;;;96.93;33.35;;;5.10;99.90;;;;;;5002360;28;25065;-68
2023/02/10 10:29:18;;;;;;;127.43;36.90;;;5.30;99.90;;;;;;5000875;28;25099;-70
2023/02/10 10:31:47;;;;;;;89.93;32.40;;;5.30;99.90;;;;;;5003983;28;25086;-70
2023/02/10 10:34:20;;;;;;;81.03;28.60;;;5.60;99.90;;;;;;5002279;28;25068;-69
2023/02/10 10:36:51;;;;;;;107.63;33.38;;;5.70;99.90;;;;;;4999765;28;25073;-69
2023/02/10 10:39:26;;;;;;;100.47;34.10;;;5.90;99.90;;;;;;5000609;28;25065;-69
2023/02/10 10:41:53;;;;;;;100.85;32.25;;;6.00;99.90;;;;;;4988575;28;25095;-70
2023/02/10 10:44:19;;;;;;;93.82;31.08;;;6.10;99.90;;;;;;5000555;28;25065;-70
2023/02/10 10:46:59;;;;;;;97.63;34.15;;;6.10;99.90;;;;;;5000834;28;25074;-71
2023/02/10 10:49:24;;;;;;;82.43;30.45;;;6.40;99.90;;;;;;5009023;28;25054;-70
2023/02/10 10:51:50;;;;;;;90.10;30.55;;;6.60;99.90;;;;;;5005353;28;25137;-70
2023/02/10 10:54:18;;;;;;;89.80;30.77;;;6.90;99.90;;;;;;5001406;28;25073;-69
2023/02/10 10:56:54;;;;;;;96.20;30.38;;;6.90;99.90;;;;;;5002373;28;25125;-70
2023/02/10 10:59:28;;;;;;;82.63;29.48;;;7.00;99.90;;;;;;5002782;28;25158;-69
2023/02/10 11:01:54;;;;;;;97.85;33.13;;;7.30;99.90;;;;;;4997601;28;25062;-69
2023/02/10 11:04:23;;;;;;;96.07;31.98;;;7.30;99.90;;;;;;5001019;28;25061;-70
2023/02/10 11:06:59;;;;;;;100.95;33.65;;;7.50;99.90;;;;;;5001236;28;25064;-68
2023/02/10 11:09:35;;;;;;;98.00;32.60;;;7.60;99.90;;;;;;4998749;28;25051;-69
2023/02/10 11:12:06;;;;;;;95.40;32.00;;;7.70;99.90;;;;;;5002369;28;25142;-69
2023/02/10 11:14:40;;;;;;;99.70;34.13;;;7.40;99.90;;;;;;5004708;28;25146;-68
2023/02/10 11:17:26;;;;;;;87.13;31.08;;;7.20;99.90;;;;;;4999928;28;25073;-67
2023/02/10 11:20:01;;;;;;;89.10;31.63;;;7.10;99.90;;;;;;4995925;28;25127;-69
2023/02/10 11:22:27;;;;;;;100.13;34.20;;;7.50;99.90;;;;;;4996148;28;25059;-68
2023/02/10 11:24:59;;;;;;;97.25;32.17;;;7.90;99.90;;;;;;5005979;28;25054;-71
2023/02/10 11:27:25;;;;;;;81.25;32.22;;;8.30;99.90;;;;;;5003657;28;25074;-67
2023/02/10 11:29:56;;;;;;;88.55;31.92;;;8.50;99.90;;;;;;5012126;28;25052;-69
2023/02/10 11:32:28;;;;;;;85.50;31.08;;;8.40;99.90;;;;;;5003716;28;25062;-69
2023/02/10 11:34:56;;;;;;;85.55;29.42;;;8.50;99.90;;;;;;5003536;28;25091;-70
2023/02/10 11:37:31;;;;;;;72.15;28.55;;;8.50;99.90;;;;;;4996583;28;25069;-69
2023/02/10 11:39:59;;;;;;;71.55;28.67;;;8.60;99.90;;;;;;5001389;28;25074;-69
2023/02/10 11:42:28;;;;;;;70.22;27.20;;;8.20;99.90;;;;;;4977368;28;25102;-70
2023/02/10 11:44:57;;;;;;;77.07;29.08;;;8.10;99.90;;;;;;4996902;28;25084;-69
2023/02/10 11:47:24;;;;;;;73.00;27.98;;;7.90;99.90;;;;;;5003428;28;25079;-69
2023/02/10 11:49:50;;;;;;;72.85;30.13;;;7.90;99.90;;;;;;5000087;28;25073;-69
2023/02/10 11:52:22;;;;;;;72.43;30.25;;;7.60;99.90;;;;;;4996378;28;25061;-70
2023/02/10 11:54:49;;;;;;;65.50;28.77;;;7.30;99.90;;;;;;4999726;28;25127;-70
2023/02/10 12:00:21;;;;;;;67.28;27.38;;;7.80;99.90;;;;;;5000742;28;25058;-71
2023/02/10 12:03:01;;;;;;;66.80;30.48;;;8.20;99.90;;;;;;5001537;28;25051;-69
2023/02/10 12:05:30;;;;;;;79.15;30.45;;;8.30;99.90;;;;;;5000679;28;25115;-69
2023/02/10 12:08:22;;;;;;;71.97;30.10;;;8.10;99.90;;;;;;5003718;28;25071;-72
2023/02/10 12:11:11;;;;;;;;;;;8.40;99.90;;;;;;5007740;28;25066;-68
2023/02/10 12:13:58;;;;;;;65.35;29.40;;;8.70;99.90;;;;;;4976802;28;24089;-69
2023/02/10 12:16:57;;;;;;;65.45;27.95;;;9.10;99.90;;;;;;5006183;28;25059;-70
2023/02/10 12:19:51;;;;;;;60.55;27.98;;;8.80;99.90;;;;;;4988163;28;25062;-68
2023/02/10 12:22:33;;;;;;;59.53;26.60;;;8.90;99.90;;;;;;5003792;28;25095;-68
2023/02/10 12:25:13;;;;;;;58.20;25.77;;;9.20;99.90;;;;;;4996317;28;25067;-69
2023/02/10 12:28:01;;;;;;;56.15;26.50;;;9.10;99.90;;;;;;5003511;28;25061;-69
2023/02/10 12:30:26;;;;;;;66.47;27.15;;;9.20;99.90;;;;;;5005454;28;25147;-68
2023/02/10 12:33:00;;;;;;;55.50;26.92;;;8.90;99.90;;;;;;5002356;28;25165;-69
2023/02/10 12:35:44;;;;;;;68.82;31.02;;;8.90;99.90;;;;;;4990630;28;25093;-69
2023/02/10 12:38:56;;;;;;;65.72;29.27;;;8.40;99.90;;;;;;4994187;28;25061;-68
2023/02/10 12:41:46;;;;;;;81.13;31.75;;;8.30;99.90;;;;;;4965346;28;25093;-69
2023/02/10 12:44:31;;;;;;;78.45;34.47;;;8.30;99.90;;;;;;4962813;28;25065;-70
2023/02/10 12:47:20;;;;;;;70.18;32.47;;;8.50;99.90;;;;;;4983684;28;25111;-71
2023/02/10 12:50:07;;;;;;;78.38;32.45;;;8.70;99.90;;;;;;4993056;28;25085;-69
2023/02/10 12:52:48;;;;;;;73.97;31.48;;;8.80;99.90;;;;;;4994977;28;25073;-71
2023/02/10 12:55:22;;;;;;;64.25;30.80;;;8.80;99.90;;;;;;5007777;28;25053;-71